Shongopovi, Arizona
Current Conditions -  °F | °C
As of 1:56 AM on Sunday 26 Oct 2014 (Local Time) from KINW Reporting Station
Clear Clear  
Wind Chill: 53°   Ceiling: Unl
Heat Index: 53°   Visibility: 10mi
Dew Point: 45°   Wind: 5mph
Humidity: 74%   Direction: 130°SE
Pressure: 30.12"   Gusts: NA
Location:  35.9162°N, 110.658°W
Report Text: KINW 260856Z AUTO 13004KT 10SM CLR 12/07 A3012 RMK AO2 SLP139 T01170072 56010
Loading
Personal Weather Stations






























Interactive Weather Map
Tropical Storm Tracking
New forecast layout! Learn more

10-Day Weather Forecast

Advertisements
Track Severe Weather on mobile